Saint Charles, South Dakota
Current Conditions -  °F | °C
As of 1:53 AM on Sunday 26 Oct 2014 (Local Time) from KICR Reporting Station
Clear Clear  
Wind Chill: 12°   Ceiling: Unl
Heat Index: 12°   Visibility: 10mi
Dew Point:   Wind: 18mph
Humidity: 45%   Direction: 150°SSE
Pressure: 29.88"   Gusts: NA
Location:  43.09°N, 99.1°W
Report Text: KICR 260653Z AUTO 15016KT 10SM CLR 12/01 A2988 RMK AO2 SLP111 T01220006 $
Loading
Personal Weather Stations






























Interactive Weather Map
Tropical Storm Tracking
New forecast layout! Learn more

10-Day Weather Forecast

Advertisements
Track Severe Weather on mobile